Terminal Aerodrome Forecast
Issued by NWS

Home | Current Version | Previous Version | Text Only | Print | Product List | Glossary Off
Versions: 1 2 3 4 5 6 7 8 9 10 11 12 13 14 15 16 17 18 19 20

000
FTUS43 KPAH 141700
TAFCGI
TAF
KCGI 141725Z 1418/1518 33010G20KT P6SM VCSH OVC015
      TEMPO 1418/1421 3SM -RADZ BR OVC008
     FM142100 34013G23KT 4SM -RA BR OVC010
     FM150300 33010G20KT P6SM BKN025
     FM150900 32010KT P6SM SKC=

USA.gov is the U.S. government's official web portal to all federal, state and local government web resources and services.